Time;durP1;ratioP1;P1;durP2;ratioP2;P2;SDS_P1;SDS_P2;PMS_P1;PMS_P2;Temp;Humidity;BMP_temperature;BMP_pressure;BME280_temperature;BME280_humidity;BME280_pressure;Samples;Min_cycle;Max_cycle;Signal;HPM_P1;HPM_P2
2022/12/07 00:01:30;;;;;;;44.85;24.63;;;;;;;4.98;97.42;101331.91;5065127;28;20029;-68
2022/12/07 00:04:00;;;;;;;48.78;24.52;;;;;;;4.99;98.02;101326.78;5066387;28;20037;-68
2022/12/07 00:06:26;;;;;;;50.38;23.52;;;;;;;5.00;97.85;101328.53;5060832;28;20036;-68
2022/12/07 00:08:52;;;;;;;51.65;26.42;;;;;;;5.03;97.23;101327.72;5056004;28;20094;-68
2022/12/07 00:11:23;;;;;;;47.22;24.55;;;;;;;5.04;97.56;101327.75;5064924;28;20516;-68
2022/12/07 00:13:57;;;;;;;55.50;26.58;;;;;;;5.06;97.51;101320.13;5053427;28;20044;-68
2022/12/07 00:16:25;;;;;;;46.05;23.70;;;;;;;5.07;97.12;101322.69;5045461;28;20076;-68
2022/12/07 00:18:50;;;;;;;46.08;25.17;;;;;;;5.09;96.87;101323.63;5062974;28;20037;-68
2022/12/07 00:21:23;;;;;;;43.42;23.98;;;;;;;5.11;96.72;101323.63;5057472;28;20689;-68
2022/12/07 00:23:50;;;;;;;43.00;23.42;;;;;;;5.11;97.02;101321.94;5057679;28;20508;-68
2022/12/07 00:26:17;;;;;;;48.15;25.40;;;;;;;5.12;97.05;101317.69;5046002;28;20041;-68
2022/12/07 00:28:46;;;;;;;45.53;25.77;;;;;;;5.13;96.95;101315.16;5045441;28;20082;-68
2022/12/07 00:31:13;;;;;;;40.65;23.10;;;;;;;5.14;96.67;101310.88;5044553;28;20049;-68
2022/12/07 00:33:39;;;;;;;45.63;26.80;;;;;;;5.15;96.17;101310.06;5048964;28;20502;-68
2022/12/07 00:36:10;;;;;;;44.20;24.52;;;;;;;5.14;96.23;101305.78;5048896;28;20067;-68
2022/12/07 00:38:37;;;;;;;43.97;25.85;;;;;;;5.15;96.24;101304.94;5065839;28;20039;-68
2022/12/07 00:41:06;;;;;;;46.35;24.05;;;;;;;5.16;96.37;101304.97;5049384;28;20402;-68
2022/12/07 00:43:31;;;;;;;42.17;24.98;;;;;;;5.17;96.39;101298.16;5043127;28;20119;-68
2022/12/07 00:45:57;;;;;;;43.25;24.98;;;;;;;5.18;96.65;101297.34;5044585;28;20045;-68
2022/12/07 00:48:24;;;;;;;47.47;24.60;;;;;;;5.18;95.95;101294.75;5045321;28;20061;-68
2022/12/07 00:50:49;;;;;;;47.08;25.98;;;;;;;5.18;96.03;101290.50;5056224;28;20025;-68
2022/12/07 00:53:15;;;;;;;45.42;25.48;;;;;;;5.17;96.09;101293.91;5058949;28;20072;-68
2022/12/07 00:55:41;;;;;;;43.72;25.98;;;;;;;5.19;95.88;101288.78;5044923;28;20033;-68
2022/12/07 00:58:07;;;;;;;46.55;25.55;;;;;;;5.16;95.68;101296.44;5045234;28;20044;-68
2022/12/07 01:00:33;;;;;;;44.50;24.83;;;;;;;5.16;95.48;101299.00;5044441;28;20043;-68
2022/12/07 01:02:58;;;;;;;48.45;25.73;;;;;;;5.16;95.72;101287.03;5059439;28;20036;-67
2022/12/07 01:05:24;;;;;;;45.72;27.38;;;;;;;5.16;95.79;101287.03;5058537;28;20029;-68
2022/12/07 01:07:49;;;;;;;44.42;26.02;;;;;;;5.16;95.78;101294.72;5054324;28;20071;-69
2022/12/07 01:10:14;;;;;;;45.97;27.02;;;;;;;5.18;95.39;101289.63;5054832;28;20031;-68
2022/12/07 01:12:40;;;;;;;41.90;24.88;;;;;;;5.19;95.26;101301.59;5045020;28;20044;-69
2022/12/07 01:15:07;;;;;;;42.15;24.95;;;;;;;5.20;95.71;101290.53;5044482;28;20671;-68
2022/12/07 01:17:32;;;;;;;46.53;25.83;;;;;;;5.20;95.65;101288.84;5046913;28;20033;-68
2022/12/07 01:19:58;;;;;;;53.53;26.42;;;;;;;5.22;95.60;101294.84;5057858;28;20532;-68
2022/12/07 01:22:23;;;;;;;45.58;25.50;;;;;;;5.23;95.49;101294.03;5063401;28;20028;-68
2022/12/07 01:24:48;;;;;;;47.35;25.73;;;;;;;5.23;95.09;101299.16;5064394;28;20098;-68
2022/12/07 01:27:14;;;;;;;46.13;26.65;;;;;;;5.25;94.91;101295.78;5064097;28;20028;-69
2022/12/07 01:29:39;;;;;;;42.22;26.38;;;;;;;5.24;95.23;101300.03;5063238;28;20562;-68
2022/12/07 01:32:05;;;;;;;46.42;26.42;;;;;;;5.24;95.06;101294.91;5062418;28;20246;-69
2022/12/07 01:34:31;;;;;;;46.25;26.00;;;;;;;5.24;95.33;101294.91;5064316;28;20032;-69
2022/12/07 01:36:57;;;;;;;42.83;26.00;;;;;;;5.24;94.95;101294.91;5064496;28;20052;-68
2022/12/07 01:39:23;;;;;;;45.38;26.17;;;;;;;5.25;95.33;101295.78;5063840;28;20036;-68
2022/12/07 01:41:48;;;;;;;44.03;25.45;;;;;;;5.25;95.55;101298.34;5064025;28;20052;-68
2022/12/07 01:44:25;;;;;;;42.92;24.38;;;;;;;5.26;95.33;101292.34;5064426;28;20086;-68
2022/12/07 01:46:58;;;;;;;43.88;25.65;;;;;;;5.26;95.54;101289.78;5063575;28;20087;-68
2022/12/07 01:49:45;;;;;;;43.30;26.27;;;;;;;5.26;95.41;101290.66;5068709;28;20047;-67
2022/12/07 01:52:19;;;;;;;45.72;26.23;;;;;;;5.30;94.91;101291.59;5063679;28;20046;-68
2022/12/07 01:54:47;;;;;;;47.58;25.50;;;;;;;5.31;95.11;101295.91;5051123;28;20036;-68
2022/12/07 01:57:15;;;;;;;41.30;24.80;;;;;;;5.32;95.16;101295.91;5046547;28;20029;-68
2022/12/07 01:59:47;;;;;;;43.15;25.40;;;;;;;5.33;95.29;101292.53;5063500;28;20742;-68
2022/12/07 02:02:19;;;;;;;43.67;24.63;;;;;;;5.33;95.39;101289.97;5057182;28;20028;-68
2022/12/07 02:04:45;;;;;;;41.58;25.55;;;;;;;5.35;95.41;101288.28;5058427;28;20582;-68
2022/12/07 02:07:11;;;;;;;46.47;25.60;;;;;;;5.36;95.10;101279.78;5064747;28;20090;-68
2022/12/07 02:09:37;;;;;;;43.63;25.40;;;;;;;5.37;94.99;101276.38;5045654;28;20111;-68
2022/12/07 02:12:03;;;;;;;48.15;26.88;;;;;;;5.38;94.69;101282.38;5055819;28;20378;-67
2022/12/07 02:14:28;;;;;;;44.03;25.38;;;;;;;5.40;95.04;101279.00;5064579;28;20024;-68
2022/12/07 02:17:07;;;;;;;46.05;26.05;;;;;;;5.42;94.84;101273.91;5060240;28;20044;-69
2022/12/07 02:20:17;;;;;;;47.97;26.10;;;;;;;5.43;94.71;101270.53;5057312;28;20055;-68
2022/12/07 02:23:16;;;;;;;43.30;25.55;;;;;;;5.44;94.89;101273.09;5061824;28;20046;-68
2022/12/07 02:26:00;;;;;;;42.35;24.95;;;;;;;5.45;94.70;101268.84;5057621;28;20040;-68
2022/12/07 02:28:36;;;;;;;45.80;26.33;;;;;;;5.44;94.96;101264.53;5063366;28;20119;-68
2022/12/07 02:31:09;;;;;;;47.42;25.40;;;;;;;5.46;94.85;101270.56;5063014;28;20032;-68
2022/12/07 02:33:49;;;;;;;46.30;28.35;;;;;;;5.44;94.89;101265.41;5051754;28;20040;-68
2022/12/07 02:36:25;;;;;;;48.17;26.73;;;;;;;5.45;95.34;101268.84;5043362;28;20025;-68
2022/12/07 02:38:57;;;;;;;47.53;25.63;;;;;;;5.44;94.43;101265.41;5044037;28;20501;-68
2022/12/07 02:41:35;;;;;;;46.45;26.90;;;;;;;5.44;94.55;101273.09;5041787;28;20580;-68
2022/12/07 02:44:14;;;;;;;45.55;26.67;;;;;;;5.44;94.79;101270.53;5043333;28;20398;-68
2022/12/07 02:46:47;;;;;;;53.53;29.75;;;;;;;5.43;95.58;101263.69;5043257;28;20087;-68
2022/12/07 02:49:12;;;;;;;47.33;27.73;;;;;;;5.41;95.50;101261.91;5042618;28;20045;-69
2022/12/07 02:51:43;;;;;;;52.17;27.77;;;;;;;5.39;95.66;101264.47;5058007;28;20360;-68
2022/12/07 02:54:12;;;;;;;45.85;27.23;;;;;;;5.37;96.35;101265.28;5051780;28;20040;-68
2022/12/07 02:56:43;;;;;;;49.20;28.08;;;;;;;5.34;96.08;101260.09;5059426;28;20123;-68
2022/12/07 03:00:03;;;;;;;47.47;26.95;;;;;;;5.32;96.39;101254.91;5052539;28;20032;-69
2022/12/07 03:03:06;;;;;;;44.88;26.65;;;;;;;5.33;96.59;101261.78;5012197;28;20649;-68
2022/12/07 03:06:04;;;;;;;50.67;27.15;;;;;;;5.33;96.44;101259.22;5063098;28;20080;-68
2022/12/07 03:08:43;;;;;;;44.10;26.63;;;;;;;5.32;96.37;101257.47;5032742;28;20112;-68
2022/12/07 03:11:14;;;;;;;47.72;25.85;;;;;;;5.33;96.53;101263.47;5041960;28;20091;-70
2022/12/07 03:14:03;;;;;;;43.58;25.67;;;;;;;5.32;96.74;101256.59;5035971;28;20429;-68
2022/12/07 03:16:35;;;;;;;49.85;27.20;;;;;;;5.31;96.79;101255.72;5029261;28;20809;-69
2022/12/07 03:19:12;;;;;;;48.63;27.63;;;;;;;5.32;96.57;101262.59;5043786;28;20447;-68
2022/12/07 03:21:45;;;;;;;42.55;25.90;;;;;;;5.32;96.75;101256.59;5060189;28;20036;-68
2022/12/07 03:24:19;;;;;;;47.00;27.73;;;;;;;5.31;96.85;101253.16;5056848;28;20040;-68
2022/12/07 03:26:49;;;;;;;50.13;25.75;;;;;;;5.31;96.50;101257.47;5032027;28;20022;-68
2022/12/07 03:29:31;;;;;;;38.83;23.67;;;;;;;5.32;96.41;101252.34;5040845;28;20502;-68
2022/12/07 03:32:29;;;;;;;45.10;25.23;;;;;;;5.34;96.51;101260.09;5054162;28;20035;-68
2022/12/07 03:35:17;;;;;;;43.22;24.73;;;;;;;5.35;96.63;101257.53;5053495;28;20113;-68
2022/12/07 03:37:57;;;;;;;42.50;25.33;;;;;;;5.35;96.25;101259.22;5050411;28;20066;-68
2022/12/07 03:40:34;;;;;;;45.85;24.15;;;;;;;5.34;95.99;101258.34;5064203;28;20397;-68
2022/12/07 03:43:02;;;;;;;42.63;25.30;;;;;;;5.35;96.51;101254.97;5062719;28;20062;-68
2022/12/07 03:45:39;;;;;;;40.35;24.05;;;;;;;5.35;96.64;101260.09;5064656;28;20570;-68
2022/12/07 03:48:30;;;;;;;45.50;25.30;;;;;;;5.35;96.49;101257.53;5065408;28;20409;-67
2022/12/07 03:51:01;;;;;;;45.25;25.25;;;;;;;5.36;96.28;101258.41;5054784;28;20586;-68
2022/12/07 03:53:48;;;;;;;41.17;25.13;;;;;;;5.37;96.80;101261.00;5060265;28;20126;-68
2022/12/07 03:56:14;;;;;;;44.92;24.60;;;;;;;5.38;96.39;101259.28;5050103;28;20401;-68
2022/12/07 03:58:41;;;;;;;46.22;24.70;;;;;;;5.39;96.15;101258.47;5055642;28;20040;-69
2022/12/07 04:01:06;;;;;;;47.70;25.38;;;;;;;5.39;96.35;101261.91;5063909;28;20497;-68
2022/12/07 04:03:31;;;;;;;40.25;24.33;;;;;;;5.40;95.96;101257.66;5050509;28;20037;-68
2022/12/07 04:05:58;;;;;;;40.33;23.38;;;;;;;5.39;96.03;101258.47;5052871;28;20037;-67
2022/12/07 04:08:24;;;;;;;45.58;25.45;;;;;;;5.37;95.96;101258.41;5061733;28;20460;-68
2022/12/07 04:10:50;;;;;;;41.20;23.85;;;;;;;5.36;96.01;101266.09;5045398;28;20040;-68
2022/12/07 04:13:15;;;;;;;43.60;23.92;;;;;;;5.35;96.38;101257.53;5042025;28;20044;-68
2022/12/07 04:15:40;;;;;;;50.80;25.73;;;;;;;5.35;95.99;101264.34;5041446;28;20037;-68
2022/12/07 04:18:06;;;;;;;44.75;25.98;;;;;;;5.34;96.59;101257.53;5036376;28;20488;-68
2022/12/07 04:20:31;;;;;;;40.55;24.83;;;;;;;5.32;96.07;101252.34;5036487;28;20032;-68
2022/12/07 04:22:56;;;;;;;39.38;23.38;;;;;;;5.30;96.24;101256.59;5040054;28;20038;-67
2022/12/07 04:25:22;;;;;;;45.92;24.83;;;;;;;5.28;96.16;101250.53;5038451;28;20044;-68
2022/12/07 04:27:47;;;;;;;43.17;24.67;;;;;;;5.27;96.63;101255.66;5046341;28;20199;-67
2022/12/07 04:30:13;;;;;;;44.47;24.48;;;;;;;5.30;96.21;101260.84;5055410;28;20103;-68
2022/12/07 04:32:38;;;;;;;43.85;26.10;;;;;;;5.27;96.41;101248.84;5060716;28;20036;-68
2022/12/07 04:35:07;;;;;;;44.85;26.23;;;;;;;5.30;96.51;101248.91;5052720;28;20041;-67
2022/12/07 04:37:32;;;;;;;48.50;26.88;;;;;;;5.30;96.29;101256.59;5066221;28;20141;-67
2022/12/07 04:39:57;;;;;;;45.08;26.33;;;;;;;5.32;96.41;101256.59;5055427;28;20036;-68
2022/12/07 04:42:24;;;;;;;46.67;25.13;;;;;;;5.32;96.29;101257.47;5053082;28;20029;-67
2022/12/07 04:44:50;;;;;;;40.53;23.35;;;;;;;5.31;95.83;101254.91;5066254;28;20036;-67
2022/12/07 04:47:16;;;;;;;45.22;25.73;;;;;;;5.29;95.95;101248.84;5063201;28;20066;-68
2022/12/07 04:49:41;;;;;;;42.70;25.58;;;;;;;5.26;95.60;101248.78;5051500;28;20029;-68
2022/12/07 04:52:07;;;;;;;46.78;25.83;;;;;;;5.25;95.79;101239.38;5054657;28;20139;-68
2022/12/07 04:54:32;;;;;;;44.70;25.10;;;;;;;5.22;95.56;101245.28;5065085;28;20029;-67
2022/12/07 04:56:57;;;;;;;42.47;25.30;;;;;;;5.19;95.58;101240.97;5056362;28;20843;-67
2022/12/07 04:59:23;;;;;;;48.17;26.42;;;;;;;5.17;95.86;101245.22;5047754;28;20021;-68
2022/12/07 05:01:51;;;;;;;44.65;25.58;;;;;;;5.15;96.19;101239.19;5044766;28;20040;-68
2022/12/07 05:04:17;;;;;;;45.42;25.92;;;;;;;5.13;95.79;101242.56;5044458;28;20127;-68
2022/12/07 05:06:43;;;;;;;45.08;24.17;;;;;;;5.10;96.66;101239.94;5051218;28;20029;-68
2022/12/07 05:09:09;;;;;;;40.88;23.67;;;;;;;5.07;96.30;101243.28;5050097;28;20063;-68
2022/12/07 05:11:38;;;;;;;46.70;25.25;;;;;;;5.01;96.46;101245.69;5044945;28;20130;-68
2022/12/07 05:14:10;;;;;;;44.20;24.77;;;;;;;4.96;96.63;101243.88;5031205;28;20039;-68
2022/12/07 05:16:36;;;;;;;45.00;24.38;;;;;;;4.90;96.79;101254.84;5037906;28;20040;-68
2022/12/07 05:19:01;;;;;;;47.55;24.85;;;;;;;4.88;96.83;101247.97;5064621;28;20037;-68
2022/12/07 05:21:27;;;;;;;55.22;25.95;;;;;;;4.86;96.76;101254.78;5056482;28;20033;-68
2022/12/07 05:23:52;;;;;;;42.67;23.23;;;;;;;4.87;96.85;101249.66;5063362;28;20579;-68
2022/12/07 05:26:18;;;;;;;45.47;25.17;;;;;;;4.89;96.96;101258.28;5064382;28;20036;-68
2022/12/07 05:28:43;;;;;;;44.15;23.60;;;;;;;4.90;97.02;101266.78;5063770;28;20033;-68
2022/12/07 05:31:09;;;;;;;46.97;26.60;;;;;;;4.93;97.06;101265.16;5062195;28;20886;-68
2022/12/07 05:33:34;;;;;;;45.58;25.80;;;;;;;4.97;96.89;101263.56;5064027;28;20562;-68
2022/12/07 05:36:05;;;;;;;41.85;23.52;;;;;;;4.99;96.97;101256.75;5064377;28;20099;-67
2022/12/07 05:38:34;;;;;;;43.78;23.38;;;;;;;4.99;96.92;101257.63;5063700;28;20032;-68
2022/12/07 05:41:01;;;;;;;42.40;22.50;;;;;;;5.00;97.02;101258.50;5063318;28;20755;-67
2022/12/07 05:43:26;;;;;;;40.08;21.20;;;;;;;4.99;96.31;101257.63;5042138;28;20777;-68
2022/12/07 05:45:52;;;;;;;42.92;23.25;;;;;;;4.96;96.83;101259.25;5044242;28;20033;-68
2022/12/07 05:48:17;;;;;;;41.53;23.42;;;;;;;4.94;96.00;101258.34;5050866;28;20033;-67
2022/12/07 05:50:43;;;;;;;45.45;23.70;;;;;;;4.89;96.06;101257.41;5054986;28;20024;-68
2022/12/07 05:53:08;;;;;;;48.83;24.17;;;;;;;4.85;96.57;101253.91;5051630;28;20119;-68
2022/12/07 05:55:33;;;;;;;43.33;23.13;;;;;;;4.85;96.69;101253.03;5049048;28;20104;-68
2022/12/07 06:00:43;;;;;;;41.00;22.48;;;;;;;4.85;96.28;101258.16;5043199;28;20122;-67
2022/12/07 06:03:08;;;;;;;46.15;22.45;;;;;;;4.84;96.37;101254.72;5043365;28;20507;-68
2022/12/07 06:05:33;;;;;;;43.85;22.92;;;;;;;4.82;96.50;101256.38;5047871;28;20042;-68
2022/12/07 06:07:59;;;;;;;41.50;24.20;;;;;;;4.83;96.62;101253.00;5056437;28;20044;-67
2022/12/07 06:10:24;;;;;;;46.15;24.95;;;;;;;4.85;96.61;101246.22;5047311;28;20503;-68
2022/12/07 06:12:49;;;;;;;41.40;22.95;;;;;;;4.88;96.61;101256.53;5057181;28;20072;-67
2022/12/07 06:15:15;;;;;;;41.90;23.30;;;;;;;4.91;96.25;101254.03;5043056;28;20094;-67
2022/12/07 06:17:40;;;;;;;44.88;23.67;;;;;;;4.94;96.70;101263.47;5052591;28;20039;-68
2022/12/07 06:20:06;;;;;;;44.47;24.48;;;;;;;4.96;95.80;101262.69;5060030;28;20851;-68
2022/12/07 06:22:32;;;;;;;42.60;23.38;;;;;;;5.00;95.45;101255.94;5058633;28;20090;-67
2022/12/07 06:24:57;;;;;;;45.40;22.63;;;;;;;5.00;95.79;101256.81;5062760;28;20385;-67
2022/12/07 06:27:23;;;;;;;44.33;22.63;;;;;;;4.99;95.92;101256.75;5063161;28;20138;-67
2022/12/07 06:29:48;;;;;;;39.22;23.02;;;;;;;4.95;95.73;101250.69;5062841;28;20056;-68
2022/12/07 06:32:13;;;;;;;44.30;25.67;;;;;;;4.89;95.65;101257.41;5062314;28;20032;-68
2022/12/07 06:34:39;;;;;;;49.92;24.40;;;;;;;4.81;95.67;101262.34;5062714;28;20036;-68
2022/12/07 06:37:04;;;;;;;43.45;22.98;;;;;;;4.74;95.98;101257.91;5062368;28;20562;-68
2022/12/07 06:39:30;;;;;;;49.75;24.02;;;;;;;4.68;96.70;101262.03;5065573;28;20040;-68
2022/12/07 06:41:56;;;;;;;41.45;22.73;;;;;;;4.61;96.61;101271.25;5060677;28;20024;-68
2022/12/07 06:44:22;;;;;;;50.40;24.85;;;;;;;4.59;96.48;101273.78;5055692;28;20133;-67
2022/12/07 06:46:49;;;;;;;42.60;23.92;;;;;;;4.59;97.07;101273.78;5053769;28;20060;-67
2022/12/07 06:49:15;;;;;;;42.72;24.20;;;;;;;4.57;96.93;101272.00;5051624;28;20048;-67
2022/12/07 06:51:43;;;;;;;41.58;23.05;;;;;;;4.56;97.73;101277.97;5038969;28;20137;-68
2022/12/07 06:54:13;;;;;;;41.67;23.13;;;;;;;4.55;97.17;101271.09;5056122;28;20036;-67
2022/12/07 06:56:39;;;;;;;47.13;23.73;;;;;;;4.57;96.94;101275.44;5043915;28;20083;-68
2022/12/07 06:59:06;;;;;;;44.75;23.85;;;;;;;4.59;97.79;101268.69;5042894;28;20037;-68
2022/12/07 07:01:32;;;;;;;44.72;22.15;;;;;;;4.60;97.60;101265.25;5044700;28;20033;-67
2022/12/07 07:03:57;;;;;;;42.47;21.95;;;;;;;4.60;97.24;101267.81;5043859;28;20122;-68
2022/12/07 07:06:23;;;;;;;40.20;22.92;;;;;;;4.62;97.51;101260.19;5057676;28;20071;-67
2022/12/07 07:08:48;;;;;;;39.75;21.30;;;;;;;4.62;97.81;101271.31;5063859;28;20047;-67
2022/12/07 07:11:14;;;;;;;41.47;22.05;;;;;;;4.61;97.96;101276.38;5042392;28;20528;-67
2022/12/07 07:13:39;;;;;;;39.85;21.58;;;;;;;4.59;97.50;101265.25;5042246;28;20444;-67
2022/12/07 07:16:05;;;;;;;43.33;20.48;;;;;;;4.60;96.55;101269.50;5042323;28;20048;-67
2022/12/07 07:18:31;;;;;;;43.25;19.95;;;;;;;4.59;96.89;101284.03;5040126;28;20526;-67
2022/12/07 07:20:56;;;;;;;33.28;18.52;;;;;;;4.61;97.31;101273.81;5032420;28;20069;-65
2022/12/07 07:23:22;;;;;;;40.72;19.30;;;;;;;4.66;97.23;101283.34;5042580;28;20033;-67
2022/12/07 07:25:48;;;;;;;37.22;19.52;;;;;;;4.70;97.26;101280.84;5042493;28;20132;-67
2022/12/07 07:28:15;;;;;;;34.65;17.45;;;;;;;4.72;96.91;101284.28;5041486;28;20032;-68
2022/12/07 07:30:40;;;;;;;30.83;18.50;;;;;;;4.76;96.23;101291.22;5042418;28;20044;-67
2022/12/07 07:33:06;;;;;;;32.78;17.33;;;;;;;4.79;96.01;101288.75;5042282;28;20040;-67
2022/12/07 07:35:33;;;;;;;32.60;19.33;;;;;;;4.82;96.18;101283.69;5031788;28;20037;-67
2022/12/07 07:37:59;;;;;;;34.97;18.17;;;;;;;4.86;95.38;101277.81;5052184;28;20064;-67
2022/12/07 07:40:25;;;;;;;33.95;18.52;;;;;;;4.89;95.93;101291.56;5055170;28;20036;-68
2022/12/07 07:42:53;;;;;;;32.67;18.30;;;;;;;4.92;95.34;101281.34;5052347;28;20103;-67
2022/12/07 07:45:20;;;;;;;34.47;18.80;;;;;;;4.96;95.12;101292.53;5034092;28;20354;-67
2022/12/07 07:47:45;;;;;;;38.70;19.30;;;;;;;4.96;95.57;101290.84;5059382;28;20135;-67
2022/12/07 07:50:11;;;;;;;35.70;19.88;;;;;;;4.98;95.33;101290.91;5060636;28;20597;-68
2022/12/07 07:52:37;;;;;;;37.25;20.20;;;;;;;4.99;95.27;101290.06;5048526;28;20036;-69
2022/12/07 07:55:03;;;;;;;38.15;21.10;;;;;;;5.00;95.64;101289.22;5063735;28;20440;-67
2022/12/07 07:57:28;;;;;;;34.70;19.52;;;;;;;5.04;95.19;101293.59;5065337;28;20139;-68
2022/12/07 07:59:53;;;;;;;38.95;20.05;;;;;;;5.06;95.46;101294.50;5066107;28;20652;-67
2022/12/07 08:02:20;;;;;;;38.72;19.60;;;;;;;5.05;94.97;101287.63;5063617;28;20151;-68
2022/12/07 08:04:46;;;;;;;41.47;22.25;;;;;;;5.05;94.80;101292.75;5055228;28;20386;-68
2022/12/07 08:07:12;;;;;;;42.00;19.50;;;;;;;5.01;95.16;101291.81;5061180;28;20571;-68
2022/12/07 08:09:43;;;;;;;40.47;22.38;;;;;;;4.97;95.54;101295.16;5045541;28;20037;-67
2022/12/07 08:12:08;;;;;;;46.60;22.10;;;;;;;4.91;95.27;101291.59;5045721;28;20120;-68
2022/12/07 08:14:34;;;;;;;46.70;22.00;;;;;;;4.85;95.52;101296.56;5046092;28;20109;-68
2022/12/07 08:17:00;;;;;;;40.72;20.90;;;;;;;4.80;95.35;101287.91;5047471;28;20498;-68
2022/12/07 08:19:25;;;;;;;38.88;20.67;;;;;;;4.80;96.25;101293.03;5057013;28;20043;-68
2022/12/07 08:21:51;;;;;;;37.60;21.02;;;;;;;4.83;96.37;101293.13;5062589;28;20103;-69
2022/12/07 08:24:17;;;;;;;44.13;21.88;;;;;;;4.88;95.94;101286.41;5059490;28;20037;-67
2022/12/07 08:26:43;;;;;;;46.70;22.42;;;;;;;4.98;96.35;101291.75;5064922;28;20599;-67
2022/12/07 08:29:08;;;;;;;40.28;21.75;;;;;;;5.09;96.07;101285.19;5065480;28;20564;-67
2022/12/07 08:31:36;;;;;;;36.33;21.02;;;;;;;5.14;94.86;101285.28;5065084;28;20175;-68
2022/12/07 08:34:01;;;;;;;43.17;21.45;;;;;;;5.20;94.85;101278.59;5054688;28;20152;-68
2022/12/07 08:36:27;;;;;;;39.33;20.45;;;;;;;5.28;94.40;101290.72;5045294;28;20771;-68
2022/12/07 08:38:52;;;;;;;39.00;21.13;;;;;;;5.35;94.07;101293.41;5060510;28;20029;-67
2022/12/07 08:41:18;;;;;;;40.17;20.90;;;;;;;5.41;93.46;101290.13;5063166;28;20131;-68
2022/12/07 08:43:43;;;;;;;37.00;19.90;;;;;;;5.44;93.28;101290.19;5063976;28;20042;-68
2022/12/07 08:46:19;;;;;;;37.58;19.65;;;;;;;5.47;93.69;101297.94;5065184;28;20127;-68
2022/12/07 08:48:49;;;;;;;42.38;20.83;;;;;;;5.45;93.22;101291.91;5065396;28;20045;-68
2022/12/07 08:51:14;;;;;;;36.53;19.15;;;;;;;5.41;93.22;101295.25;5062980;28;20031;-67
2022/12/07 08:53:42;;;;;;;32.53;18.38;;;;;;;5.35;93.27;101293.41;5057724;28;20028;-68
2022/12/07 08:56:07;;;;;;;31.95;19.13;;;;;;;5.31;93.43;101296.75;5045074;28;20043;-62
2022/12/07 08:58:35;;;;;;;35.72;18.60;;;;;;;5.27;93.25;101288.97;5044586;28;20041;-62
2022/12/07 09:01:01;;;;;;;32.22;17.65;;;;;;;5.26;93.88;101292.34;5029107;28;20033;-62
2022/12/07 09:03:26;;;;;;;33.00;17.83;;;;;;;5.33;93.74;101294.22;5029141;28;20476;-62
2022/12/07 09:05:53;;;;;;;32.63;17.52;;;;;;;5.42;93.79;101291.84;5064349;28;20139;-62
2022/12/07 09:08:19;;;;;;;36.25;16.35;;;;;;;5.53;93.71;101292.94;5064689;28;20618;-62
2022/12/07 09:10:45;;;;;;;30.48;16.65;;;;;;;5.64;92.44;101300.00;5046764;28;20046;-62
2022/12/07 09:13:10;;;;;;;28.65;17.13;;;;;;;5.71;91.44;101291.59;5044604;28;20037;-62
2022/12/07 09:15:36;;;;;;;33.30;17.02;;;;;;;5.76;91.45;101291.69;5044459;28;20478;-62
2022/12/07 09:18:01;;;;;;;34.20;16.70;;;;;;;5.83;90.93;101298.66;5044525;28;20118;-62
2022/12/07 09:20:27;;;;;;;34.00;17.98;;;;;;;5.85;90.23;101291.84;5044336;28;20044;-62
2022/12/07 09:22:52;;;;;;;33.38;17.38;;;;;;;5.88;90.39;101291.91;5028978;28;20037;-62
2022/12/07 09:25:17;;;;;;;33.10;17.55;;;;;;;5.87;90.22;101292.78;5051610;28;20040;-62
2022/12/07 09:27:43;;;;;;;32.72;17.08;;;;;;;5.88;90.39;101294.47;5063974;28;20119;-63
2022/12/07 09:30:09;;;;;;;32.85;17.50;;;;;;;5.83;90.43;101302.94;5063843;28;20036;-62
2022/12/07 09:32:34;;;;;;;29.55;15.68;;;;;;;5.82;91.09;101306.31;5060439;28;20390;-62
2022/12/07 09:35:00;;;;;;;38.83;16.77;;;;;;;5.80;90.43;101301.19;5055224;28;20544;-63
2022/12/07 09:37:25;;;;;;;31.48;16.38;;;;;;;5.78;90.71;101308.00;5061372;28;20036;-61
2022/12/07 09:39:51;;;;;;;37.83;19.27;;;;;;;5.81;90.60;101302.91;5044132;28;20041;-63
2022/12/07 09:42:36;;;;;;;38.25;17.30;;;;;;;5.81;90.51;101307.19;5044028;28;20555;-63
2022/12/07 09:45:04;;;;;;;33.40;17.13;;;;;;;5.90;90.75;101299.66;5044161;28;20062;-63
2022/12/07 09:47:30;;;;;;;30.88;16.95;;;;;;;5.96;89.78;101298.06;5044363;28;20666;-62
2022/12/07 09:50:04;;;;;;;35.40;18.70;;;;;;;6.04;89.91;101295.66;5046928;28;20060;-63
2022/12/07 09:52:30;;;;;;;30.85;16.35;;;;;;;6.07;89.42;101291.44;5059941;28;20075;-62
2022/12/07 09:54:55;;;;;;;25.52;16.55;;;;;;;6.15;90.12;101294.13;5063008;28;20064;-62
2022/12/07 09:57:31;;;;;;;30.00;16.83;;;;;;;6.16;88.59;101289.03;5056156;28;20116;-64
2022/12/07 10:00:01;;;;;;;30.75;16.10;;;;;;;6.20;88.26;101287.41;5052668;28;20095;-62
2022/12/07 10:02:34;;;;;;;27.27;15.35;;;;;;;6.21;88.20;101287.41;5044545;28;20048;-63
2022/12/07 10:05:00;;;;;;;30.25;15.45;;;;;;;6.18;87.85;101289.06;5043897;28;20029;-62
2022/12/07 10:07:25;;;;;;;30.83;16.77;;;;;;;6.23;88.22;101287.41;5056234;28;20056;-62
2022/12/07 10:09:50;;;;;;;28.13;14.98;;;;;;;6.25;87.82;101281.50;5061110;28;20040;-63
2022/12/07 10:12:16;;;;;;;26.92;14.15;;;;;;;6.28;87.94;101288.38;5063929;28;20060;-62
2022/12/07 10:15:06;;;;;;;30.35;15.23;;;;;;;6.27;87.73;101279.81;5063838;28;20059;-63
2022/12/07 10:17:34;;;;;;;27.55;15.15;;;;;;;6.31;87.81;101280.75;5062797;28;20044;-62
2022/12/07 10:20:15;;;;;;;27.52;14.48;;;;;;;6.37;87.44;101277.41;5061751;28;20041;-62
2022/12/07 10:22:55;;;;;;;33.15;14.57;;;;;;;6.34;87.89;101271.38;5043421;28;20029;-63
2022/12/07 10:25:22;;;;;;;26.65;13.50;;;;;;;6.37;88.41;101283.41;5049206;28;20036;-62
2022/12/07 10:28:00;;;;;;;25.30;13.93;;;;;;;6.40;88.39;101272.31;5050081;28;20036;-62
2022/12/07 10:30:26;;;;;;;28.30;14.80;;;;;;;6.39;87.97;101268.88;5049271;28;20414;-62
2022/12/07 10:32:51;;;;;;;29.98;14.70;;;;;;;6.39;87.61;101270.59;5063134;28;20107;-62
2022/12/07 10:35:30;;;;;;;25.67;14.55;;;;;;;6.44;88.48;101274.94;5062881;28;20037;-62
2022/12/07 10:37:58;;;;;;;25.50;14.65;;;;;;;6.40;87.98;101269.75;5056502;28;20132;-62
2022/12/07 10:40:35;;;;;;;27.27;15.68;;;;;;;6.41;88.63;101254.34;5042530;28;20044;-62
2022/12/07 10:43:01;;;;;;;24.83;13.82;;;;;;;6.48;88.83;101260.47;5042984;28;20033;-62
2022/12/07 10:45:27;;;;;;;31.38;14.52;;;;;;;6.57;87.99;101250.34;5042835;28;20099;-62
2022/12/07 10:47:58;;;;;;;28.05;16.13;;;;;;;6.68;88.84;101253.91;5052987;28;20032;-62
2022/12/07 10:50:26;;;;;;;27.15;12.20;;;;;;;6.72;86.74;101250.56;5055377;28;20544;-62
2022/12/07 10:52:55;;;;;;;25.38;12.70;;;;;;;6.78;86.72;101245.53;5055779;28;20064;-62
2022/12/07 10:55:20;;;;;;;26.63;12.30;;;;;;;6.77;86.48;101243.78;5042592;28;20930;-62
2022/12/07 10:58:00;;;;;;;24.77;13.77;;;;;;;6.75;85.50;101245.47;5043243;28;20048;-62
2022/12/07 11:00:37;;;;;;;19.52;11.40;;;;;;;6.72;85.64;101250.56;5061606;28;20085;-62
2022/12/07 11:03:15;;;;;;;18.58;10.73;;;;;;;6.65;86.29;101241.03;5062334;28;20028;-63
2022/12/07 11:05:46;;;;;;;20.02;10.30;;;;;;;6.59;85.58;101236.66;5063449;28;20032;-63
2022/12/07 11:08:15;;;;;;;22.98;10.48;;;;;;;6.57;85.94;101225.53;5057696;28;20509;-63
2022/12/07 11:10:58;;;;;;;17.75;9.25;;;;;;;6.57;85.18;101225.53;5042094;28;20827;-62
2022/12/07 11:13:30;;;;;;;18.08;9.88;;;;;;;6.63;85.58;101225.63;5062012;28;20539;-63
2022/12/07 11:16:07;;;;;;;19.17;9.77;;;;;;;6.68;85.44;101213.69;5062483;28;20135;-62
2022/12/07 11:18:40;;;;;;;18.17;9.63;;;;;;;6.74;85.59;101208.63;5054702;28;20613;-62
2022/12/07 11:21:26;;;;;;;19.77;9.07;;;;;;;6.79;84.11;101211.28;5058520;28;20500;-62
2022/12/07 11:24:09;;;;;;;16.50;8.18;;;;;;;6.91;83.83;101204.59;5047243;28;20032;-62
2022/12/07 11:26:50;;;;;;;15.68;8.68;;;;;;;7.08;83.70;101199.69;5030469;28;20399;-62
2022/12/07 11:29:37;;;;;;;15.57;8.38;;;;;;;7.21;82.53;101195.59;5036843;28;20072;-62